createdAt,value
2019-02-07T00:00:40.000Z,5.73
2019-02-07T00:03:08.961Z,7.07
2019-02-07T00:05:37.597Z,6.13
2019-02-07T00:08:06.524Z,5.87
2019-02-07T00:10:35.139Z,5.40
2019-02-07T00:13:04.102Z,6.70
2019-02-07T00:18:11.255Z,6.07
2019-02-07T00:20:39.887Z,4.83
2019-02-07T00:23:08.541Z,6.63
2019-02-07T00:25:37.163Z,5.23
2019-02-07T00:28:05.800Z,6.60
2019-02-07T00:30:34.440Z,7.97
2019-02-07T00:33:03.253Z,6.17
2019-02-07T00:38:10.699Z,5.87
2019-02-07T00:40:39.693Z,5.87
2019-02-07T00:43:08.321Z,8.17
2019-02-07T00:45:37.267Z,6.80
2019-02-07T00:48:06.159Z,5.23
2019-02-07T00:50:34.777Z,5.40
2019-02-07T00:53:03.418Z,5.67
2019-02-07T00:58:10.968Z,5.13
2019-02-07T01:00:39.591Z,5.50
2019-02-07T01:03:08.237Z,5.47
2019-02-07T01:05:36.855Z,4.57
2019-02-07T01:08:05.493Z,6.90
2019-02-07T01:10:34.109Z,5.33
2019-02-07T01:13:02.981Z,5.37
2019-02-07T01:18:10.154Z,4.10
2019-02-07T01:20:38.787Z,3.63
2019-02-07T01:23:07.423Z,4.70
2019-02-07T01:25:36.057Z,3.10
2019-02-07T01:28:04.690Z,4.80
2019-02-07T01:33:11.865Z,4.10
2019-02-07T01:35:40.491Z,4.47
2019-02-07T01:38:09.114Z,3.30
2019-02-07T01:40:37.750Z,3.67
2019-02-07T01:43:06.373Z,4.77
2019-02-07T01:45:35.274Z,4.47
2019-02-07T01:48:04.277Z,4.33
2019-02-07T01:53:12.103Z,4.37
2019-02-07T01:55:40.727Z,3.13
2019-02-07T01:58:09.385Z,2.60
2019-02-07T02:00:38.027Z,4.97
2019-02-07T02:03:07.015Z,4.23
2019-02-07T02:05:36.000Z,4.10
2019-02-07T02:08:04.631Z,5.30
2019-02-07T02:10:33.263Z,4.70
2019-02-07T02:13:01.885Z,3.17
2019-02-07T02:18:09.413Z,7.10
2019-02-07T02:20:38.045Z,4.70
2019-02-07T02:23:06.692Z,4.40
2019-02-07T02:25:35.569Z,3.80
2019-02-07T02:28:04.509Z,4.53
2019-02-07T02:30:33.144Z,4.83
2019-02-07T02:33:01.784Z,4.83
2019-02-07T02:38:09.280Z,3.73
2019-02-07T02:40:37.911Z,4.47
2019-02-07T02:43:06.590Z,4.17
2019-02-07T02:45:37.837Z,4.13
2019-02-07T02:48:04.524Z,4.03
2019-02-07T02:50:33.526Z,3.43
2019-02-07T02:53:02.144Z,3.40
2019-02-07T02:55:31.091Z,4.67
2019-02-07T02:57:59.725Z,3.83
2019-02-07T03:00:28.365Z,3.37
2019-02-07T03:02:57.347Z,4.30
2019-02-07T03:05:26.351Z,4.17
2019-02-07T03:07:54.959Z,3.67
2019-02-07T03:10:23.733Z,4.53
2019-02-07T03:12:52.233Z,5.10
2019-02-07T03:15:20.867Z,4.30
2019-02-07T03:17:49.851Z,4.80
2019-02-07T03:20:18.485Z,5.10
2019-02-07T03:22:47.125Z,5.47
2019-02-07T03:25:15.783Z,3.47
2019-02-07T03:27:44.697Z,5.90
2019-02-07T03:30:13.357Z,2.50
2019-02-07T03:32:42.273Z,3.57
2019-02-07T03:35:11.259Z,4.00
2019-02-07T03:37:39.905Z,4.77
2019-02-07T03:40:08.530Z,4.47
2019-02-07T03:42:37.517Z,4.60
2019-02-07T03:45:06.159Z,2.90
2019-02-07T03:47:34.839Z,3.53
2019-02-07T03:50:03.449Z,3.27
2019-02-07T03:52:32.107Z,3.50
2019-02-07T03:55:01.041Z,3.77
2019-02-07T03:57:30.029Z,4.63
2019-02-07T03:59:59.009Z,3.60
2019-02-07T04:02:27.656Z,3.87
2019-02-07T04:04:56.606Z,3.20
2019-02-07T04:07:25.237Z,3.10
2019-02-07T04:09:54.164Z,2.57
2019-02-07T04:12:22.835Z,3.70
2019-02-07T04:14:51.785Z,4.30
2019-02-07T04:17:20.733Z,3.53
2019-02-07T04:19:49.724Z,2.17
2019-02-07T04:22:18.376Z,3.77
2019-02-07T04:24:47.301Z,2.80
2019-02-07T04:27:15.938Z,2.97
2019-02-07T04:29:44.568Z,4.00
2019-02-07T04:32:13.210Z,4.60
2019-02-07T04:34:42.130Z,2.93
2019-02-07T04:37:10.763Z,3.90
2019-02-07T04:39:39.382Z,2.30
2019-02-07T04:42:08.041Z,2.50
2019-02-07T04:44:36.685Z,2.00
2019-02-07T04:47:05.671Z,1.27
2019-02-07T04:49:34.310Z,2.17
2019-02-07T04:52:02.954Z,2.07
2019-02-07T04:54:31.566Z,2.07
2019-02-07T04:57:00.235Z,3.33
2019-02-07T04:59:29.173Z,2.13
2019-02-07T05:01:58.077Z,4.27
2019-02-07T05:04:27.058Z,1.20
2019-02-07T05:06:55.693Z,2.00
2019-02-07T05:09:24.803Z,1.90
2019-02-07T05:11:53.405Z,1.83
2019-02-07T05:14:22.034Z,4.23
2019-02-07T05:16:50.681Z,1.80
2019-02-07T05:19:19.302Z,2.13
2019-02-07T05:21:48.247Z,2.33
2019-02-07T05:24:16.934Z,2.47
2019-02-07T05:26:45.571Z,1.43
2019-02-07T05:29:14.500Z,2.07
2019-02-07T05:31:43.150Z,1.40
2019-02-07T05:34:12.077Z,1.90
2019-02-07T05:36:42.335Z,1.37
2019-02-07T05:39:09.697Z,2.03
2019-02-07T05:41:38.641Z,0.97
2019-02-07T05:44:07.286Z,1.37
2019-02-07T05:46:35.916Z,2.00
2019-02-07T05:49:04.563Z,1.37
2019-02-07T05:51:33.199Z,2.00
2019-02-07T05:54:01.834Z,2.87
2019-02-07T05:56:30.468Z,2.73
2019-02-07T05:58:59.477Z,2.23
2019-02-07T06:01:28.010Z,1.60
2019-02-07T06:03:56.650Z,2.80
2019-02-07T06:06:25.274Z,3.93
2019-02-07T06:08:53.905Z,3.33
2019-02-07T06:11:22.549Z,2.37
2019-02-07T06:13:51.185Z,6.27
2019-02-07T06:16:19.816Z,6.33
2019-02-07T06:18:48.467Z,5.17
2019-02-07T06:21:17.374Z,3.10
2019-02-07T06:26:25.446Z,5.80
2019-02-07T06:28:53.930Z,7.40
2019-02-07T06:31:22.570Z,8.97
2019-02-07T06:33:51.203Z,11.10
2019-02-07T06:36:19.827Z,10.77
2019-02-07T06:38:48.483Z,9.70
2019-02-07T06:41:17.397Z,8.93
2019-02-07T06:46:24.668Z,15.37
2019-02-07T06:48:53.251Z,10.90
2019-02-07T06:51:22.268Z,14.43
2019-02-07T06:53:51.284Z,15.80
2019-02-07T06:56:19.905Z,15.97
2019-02-07T06:58:49.156Z,16.83
2019-02-07T07:01:17.779Z,15.93
2019-02-07T07:03:46.424Z,12.37
2019-02-07T07:06:15.394Z,19.00
2019-02-07T07:11:22.584Z,15.53
2019-02-07T07:13:51.587Z,14.57
2019-02-07T07:16:20.210Z,12.27
2019-02-07T07:18:49.161Z,11.57
2019-02-07T07:21:17.779Z,10.97
2019-02-07T07:26:25.402Z,9.93
2019-02-07T07:28:54.033Z,11.63
2019-02-07T07:31:22.644Z,6.20
2019-02-07T07:33:51.272Z,7.67
2019-02-07T07:36:19.904Z,8.13
2019-02-07T07:38:48.872Z,11.93
2019-02-07T07:41:17.519Z,9.83
2019-02-07T07:46:24.778Z,8.30
2019-02-07T07:48:53.397Z,6.70
2019-02-07T07:51:22.026Z,8.00
2019-02-07T07:53:50.646Z,10.73
2019-02-07T07:56:19.580Z,5.90
2019-02-07T07:58:48.246Z,14.93
2019-02-07T08:01:17.262Z,12.20
2019-02-07T08:06:24.371Z,9.37
2019-02-07T08:08:53.009Z,10.13
2019-02-07T08:11:21.936Z,14.47
2019-02-07T08:13:50.919Z,10.50
2019-02-07T08:16:19.800Z,10.70
2019-02-07T08:18:48.463Z,9.50
2019-02-07T08:21:17.391Z,7.63
2019-02-07T08:23:46.031Z,9.87
2019-02-07T08:26:14.662Z,13.20
2019-02-07T08:31:22.200Z,14.93
2019-02-07T08:33:50.845Z,13.87
2019-02-07T08:36:19.831Z,13.07
2019-02-07T08:38:49.954Z,17.57
2019-02-07T08:41:17.089Z,11.43
2019-02-07T08:46:24.629Z,18.23
2019-02-07T08:48:53.266Z,14.03
2019-02-07T08:51:22.175Z,15.77
2019-02-07T08:53:51.169Z,19.20
2019-02-07T08:56:20.152Z,14.03
2019-02-07T08:58:49.149Z,8.60
2019-02-07T09:01:18.139Z,10.87
2019-02-07T09:03:46.788Z,8.43
2019-02-07T09:06:15.713Z,10.43
2019-02-07T09:08:44.705Z,9.10
2019-02-07T09:11:13.684Z,8.97
2019-02-07T09:13:42.607Z,11.47
2019-02-07T09:16:11.227Z,8.33
2019-02-07T09:21:18.415Z,10.93
2019-02-07T09:26:25.635Z,9.30
2019-02-07T09:28:54.655Z,8.37
2019-02-07T09:31:23.283Z,11.53
2019-02-07T09:33:51.914Z,9.07
2019-02-07T09:36:20.558Z,9.13
2019-02-07T09:38:49.495Z,9.43
2019-02-07T09:41:18.126Z,9.97
2019-02-07T09:46:26.880Z,9.57
2019-02-07T09:48:55.911Z,10.27
2019-02-07T09:51:24.897Z,10.00
2019-02-07T09:53:53.525Z,10.00
2019-02-07T09:56:22.486Z,10.57
2019-02-07T09:58:51.465Z,10.43
2019-02-07T10:01:20.098Z,16.73
2019-02-07T10:03:48.744Z,11.73
2019-02-07T10:06:17.708Z,9.43
2019-02-07T10:08:46.701Z,9.43
2019-02-07T10:11:15.333Z,9.63
2019-02-07T10:16:22.826Z,8.07
2019-02-07T10:18:51.449Z,9.60
2019-02-07T10:21:20.466Z,9.77
2019-02-07T10:23:49.438Z,10.73
2019-02-07T10:26:17.996Z,11.73
2019-02-07T10:31:25.285Z,9.20
2019-02-07T10:33:53.913Z,8.93
2019-02-07T10:36:22.909Z,10.57
2019-02-07T10:38:51.521Z,9.17
2019-02-07T10:41:20.159Z,9.37
2019-02-07T10:43:49.167Z,10.40
2019-02-07T10:46:17.899Z,9.30
2019-02-07T10:51:25.363Z,9.03
2019-02-07T10:53:53.988Z,12.07
2019-02-07T10:56:22.969Z,11.80
2019-02-07T10:58:51.589Z,12.13
2019-02-07T11:01:20.224Z,12.83
2019-02-07T11:03:49.185Z,10.30
2019-02-07T11:06:17.834Z,9.33
2019-02-07T11:11:25.076Z,12.37
2019-02-07T11:13:53.701Z,13.57
2019-02-07T11:16:22.333Z,12.87
2019-02-07T11:18:55.516Z,13.87
2019-02-07T11:21:19.897Z,11.17
2019-02-07T11:23:48.895Z,14.07
2019-02-07T11:26:17.540Z,13.23
2019-02-07T11:31:25.089Z,10.63
2019-02-07T11:33:53.733Z,11.10
2019-02-07T11:36:22.359Z,14.20
2019-02-07T11:38:50.981Z,12.13
2019-02-07T11:41:19.916Z,13.17
2019-02-07T11:43:48.910Z,13.93
2019-02-07T11:46:17.551Z,12.80
2019-02-07T11:51:24.804Z,14.23
2019-02-07T11:53:53.431Z,15.70
2019-02-07T11:56:22.080Z,13.53
2019-02-07T11:58:50.729Z,12.53
2019-02-07T12:01:19.765Z,14.80
2019-02-07T12:03:48.730Z,14.00
2019-02-07T12:06:17.400Z,12.50
2019-02-07T12:08:46.045Z,14.30
2019-02-07T12:11:14.990Z,14.47
2019-02-07T12:13:43.604Z,22.53
2019-02-07T12:16:12.567Z,17.33
2019-02-07T12:18:41.547Z,15.47
2019-02-07T12:21:10.182Z,16.10
2019-02-07T12:26:17.740Z,14.30
2019-02-07T12:28:46.431Z,15.07
2019-02-07T12:31:15.062Z,15.23
2019-02-07T12:33:43.695Z,15.23
2019-02-07T12:36:12.364Z,13.83
2019-02-07T12:38:40.988Z,13.67
2019-02-07T12:41:09.942Z,15.63
2019-02-07T12:43:38.564Z,13.40
2019-02-07T12:46:07.517Z,14.47
2019-02-07T12:48:36.408Z,14.10
2019-02-07T12:51:05.062Z,15.10
2019-02-07T12:53:33.707Z,12.20
2019-02-07T12:56:02.339Z,12.73
2019-02-07T12:58:30.986Z,13.37
2019-02-07T13:00:59.642Z,12.30
2019-02-07T13:03:28.611Z,12.80
2019-02-07T13:05:57.596Z,12.53
2019-02-07T13:08:26.245Z,10.47
2019-02-07T13:10:55.181Z,13.13
2019-02-07T13:13:23.841Z,12.73
2019-02-07T13:15:52.470Z,11.63
2019-02-07T13:18:21.400Z,12.60
2019-02-07T13:20:50.322Z,18.13
2019-02-07T13:23:18.952Z,11.87
2019-02-07T13:25:47.656Z,11.43
2019-02-07T13:28:16.275Z,13.07
2019-02-07T13:30:45.287Z,13.90
2019-02-07T13:33:14.267Z,13.70
2019-02-07T13:35:42.880Z,11.70
2019-02-07T13:38:11.830Z,12.53
2019-02-07T13:40:40.438Z,13.23
2019-02-07T13:43:09.078Z,12.40
2019-02-07T13:45:37.695Z,15.17
2019-02-07T13:48:06.334Z,15.47
2019-02-07T13:50:34.975Z,12.23
2019-02-07T13:53:03.929Z,14.63
2019-02-07T13:55:32.919Z,13.43
2019-02-07T13:58:01.568Z,11.93
2019-02-07T14:00:30.494Z,13.50
2019-02-07T14:02:59.122Z,13.70
2019-02-07T14:05:27.757Z,14.63
2019-02-07T14:07:56.741Z,14.13
2019-02-07T14:10:25.867Z,13.60
2019-02-07T14:12:54.829Z,14.27
2019-02-07T14:15:23.826Z,13.30
2019-02-07T14:17:52.813Z,15.47
2019-02-07T14:20:21.448Z,14.87
2019-02-07T14:22:50.209Z,14.33
2019-02-07T14:25:19.176Z,15.53
2019-02-07T14:27:48.170Z,14.23
2019-02-07T14:30:17.154Z,14.80
2019-02-07T14:32:45.797Z,16.20
2019-02-07T14:35:14.444Z,16.70
2019-02-07T14:37:43.093Z,19.33
2019-02-07T14:40:11.716Z,14.70
2019-02-07T14:42:40.359Z,19.03
2019-02-07T14:45:09.000Z,15.23
2019-02-07T14:47:37.945Z,15.83
2019-02-07T14:50:14.587Z,16.27
2019-02-07T14:52:35.516Z,15.87
2019-02-07T14:55:04.501Z,16.27
2019-02-07T14:57:33.508Z,19.27
2019-02-07T15:00:02.416Z,23.63
2019-02-07T15:02:31.068Z,19.57
2019-02-07T15:04:59.959Z,15.63
2019-02-07T15:07:28.607Z,16.67
2019-02-07T15:09:57.521Z,18.00
2019-02-07T15:12:26.153Z,16.40
2019-02-07T15:14:54.786Z,14.93
2019-02-07T15:17:23.427Z,19.07
2019-02-07T15:19:52.061Z,15.77
2019-02-07T15:22:20.708Z,15.73
2019-02-07T15:24:49.356Z,16.20
2019-02-07T15:27:17.989Z,16.40
2019-02-07T15:29:46.625Z,15.57
2019-02-07T15:32:15.260Z,16.37
2019-02-07T15:34:43.988Z,17.60
2019-02-07T15:37:12.626Z,15.60
2019-02-07T15:39:41.249Z,15.63
2019-02-07T15:42:10.220Z,14.70
2019-02-07T15:44:38.853Z,15.73
2019-02-07T15:47:08.874Z,16.10
2019-02-07T15:49:36.137Z,17.80
2019-02-07T15:52:04.779Z,16.80
2019-02-07T15:54:33.393Z,18.30
2019-02-07T15:57:02.322Z,17.13
2019-02-07T15:59:30.930Z,19.47
2019-02-07T16:01:59.555Z,17.83
2019-02-07T16:04:28.199Z,16.87
2019-02-07T16:06:56.832Z,19.50
2019-02-07T16:09:25.572Z,20.23
2019-02-07T16:11:54.199Z,17.83
2019-02-07T16:14:23.104Z,18.27
2019-02-07T16:16:51.730Z,20.57
2019-02-07T16:19:20.363Z,17.03
2019-02-07T16:21:49.368Z,17.77
2019-02-07T16:24:18.026Z,17.47
2019-02-07T16:26:46.934Z,17.93
2019-02-07T16:29:15.585Z,17.10
2019-02-07T16:31:44.194Z,19.43
2019-02-07T16:34:13.186Z,17.30
2019-02-07T16:36:41.817Z,17.83
2019-02-07T16:39:10.769Z,18.47
2019-02-07T16:41:39.380Z,18.87
2019-02-07T16:44:08.022Z,21.10
2019-02-07T16:46:37.028Z,22.07
2019-02-07T16:49:05.695Z,18.57
2019-02-07T16:51:34.293Z,17.10
2019-02-07T16:54:02.925Z,20.67
2019-02-07T16:56:31.829Z,21.10
2019-02-07T16:59:00.749Z,21.70
2019-02-07T17:01:29.739Z,20.30
2019-02-07T17:03:58.732Z,21.43
2019-02-07T17:06:27.725Z,19.03
2019-02-07T17:08:56.369Z,23.53
2019-02-07T17:11:25.010Z,22.17
2019-02-07T17:13:53.648Z,21.93
2019-02-07T17:16:22.296Z,22.47
2019-02-07T17:18:50.920Z,21.40
2019-02-07T17:21:19.563Z,23.83
2019-02-07T17:26:26.776Z,23.77
2019-02-07T17:28:55.425Z,20.77
2019-02-07T17:31:24.051Z,21.43
2019-02-07T17:33:52.669Z,25.50
2019-02-07T17:36:21.555Z,26.10
2019-02-07T17:38:50.192Z,25.90
2019-02-07T17:41:19.135Z,22.43
2019-02-07T17:43:47.780Z,24.20
2019-02-07T17:46:16.425Z,22.13
2019-02-07T17:48:45.390Z,22.33
2019-02-07T17:51:22.911Z,23.10
2019-02-07T17:53:43.368Z,24.10
2019-02-07T17:56:12.361Z,22.83
2019-02-07T17:58:40.997Z,20.57
2019-02-07T18:01:09.631Z,21.03
2019-02-07T18:03:38.259Z,20.60
2019-02-07T18:06:06.893Z,23.60
2019-02-07T18:08:35.525Z,24.70
2019-02-07T18:11:04.468Z,20.23
2019-02-07T18:13:33.111Z,22.73
2019-02-07T18:16:02.098Z,22.30
2019-02-07T18:18:30.741Z,24.73
2019-02-07T18:20:59.373Z,24.13
2019-02-07T18:23:28.011Z,23.33
2019-02-07T18:25:56.663Z,20.83
2019-02-07T18:28:25.329Z,21.67
2019-02-07T18:30:53.974Z,23.10
2019-02-07T18:33:22.650Z,26.10
2019-02-07T18:35:51.284Z,24.33
2019-02-07T18:38:19.936Z,21.73
2019-02-07T18:40:48.900Z,23.57
2019-02-07T18:43:17.538Z,22.50
2019-02-07T18:45:46.166Z,22.80
2019-02-07T18:48:14.801Z,22.67
2019-02-07T18:50:43.438Z,22.10
2019-02-07T18:53:12.404Z,19.63
2019-02-07T18:55:41.402Z,22.10
2019-02-07T18:58:10.078Z,18.47
2019-02-07T19:00:39.069Z,19.03
2019-02-07T19:03:07.694Z,21.13
2019-02-07T19:05:36.341Z,21.67
2019-02-07T19:08:04.961Z,19.87
2019-02-07T19:10:33.665Z,23.13
2019-02-07T19:13:02.585Z,21.03
2019-02-07T19:18:09.416Z,21.43
2019-02-07T19:20:38.062Z,24.00
2019-02-07T19:23:06.721Z,27.37
2019-02-07T19:25:35.366Z,25.97
2019-02-07T19:28:04.311Z,25.10
2019-02-07T19:30:33.306Z,25.37
2019-02-07T19:33:01.940Z,24.53
2019-02-07T19:35:30.886Z,25.50
2019-02-07T19:37:59.516Z,26.10
2019-02-07T19:40:28.156Z,24.20
2019-02-07T19:42:57.034Z,22.80
2019-02-07T19:45:26.779Z,25.63
2019-02-07T19:47:55.404Z,27.30
2019-02-07T19:50:27.044Z,23.53
2019-02-07T19:52:55.678Z,21.13
2019-02-07T19:55:30.451Z,28.17
2019-02-07T19:57:59.072Z,27.73
2019-02-07T20:00:30.431Z,25.03
2019-02-07T20:02:59.405Z,24.00
2019-02-07T20:05:28.115Z,23.33
2019-02-07T20:07:56.723Z,24.17
2019-02-07T20:10:25.382Z,19.33
2019-02-07T20:12:54.350Z,19.97
2019-02-07T20:15:29.435Z,19.77
2019-02-07T20:18:00.031Z,24.17
2019-02-07T20:20:26.700Z,20.40
2019-02-07T20:22:55.340Z,23.57
2019-02-07T20:25:23.991Z,23.53
2019-02-07T20:27:52.637Z,35.90
2019-02-07T20:30:30.701Z,26.83
2019-02-07T20:32:59.354Z,20.50
2019-02-07T20:35:27.993Z,19.87
2019-02-07T20:37:56.629Z,21.30
2019-02-07T20:40:25.315Z,21.07
2019-02-07T20:42:54.221Z,22.80
2019-02-07T20:45:22.864Z,23.27
2019-02-07T20:47:51.792Z,21.77
2019-02-07T20:50:20.783Z,24.40
2019-02-07T20:52:49.418Z,23.30
2019-02-07T20:55:18.041Z,21.70
2019-02-07T20:57:46.684Z,24.40
2019-02-07T21:00:21.456Z,28.03
2019-02-07T21:02:50.105Z,25.97
2019-02-07T21:05:18.743Z,24.17
2019-02-07T21:07:47.387Z,25.50
2019-02-07T21:12:54.377Z,23.63
2019-02-07T21:15:23.029Z,23.17
2019-02-07T21:17:51.668Z,24.60
2019-02-07T21:20:23.019Z,25.43
2019-02-07T21:22:52.004Z,27.80
2019-02-07T21:28:10.894Z,23.37
2019-02-07T21:30:39.540Z,24.33
2019-02-07T21:33:08.168Z,24.77
2019-02-07T21:35:36.791Z,25.30
2019-02-07T21:38:05.447Z,26.73
2019-02-07T21:40:34.399Z,22.77
2019-02-07T21:43:03.036Z,25.03
2019-02-07T21:45:31.673Z,27.53
2019-02-07T21:48:00.314Z,23.57
2019-02-07T21:50:28.956Z,25.87
2019-02-07T21:52:57.842Z,23.93
2019-02-07T21:55:26.487Z,25.37
2019-02-07T21:57:55.334Z,28.80
2019-02-07T22:00:26.748Z,30.43
2019-02-07T22:02:55.729Z,29.80
2019-02-07T22:05:24.360Z,23.80
2019-02-07T22:07:53.002Z,28.33
2019-02-07T22:10:21.980Z,24.77
2019-02-07T22:12:50.619Z,22.27
2019-02-07T22:15:19.252Z,27.07
2019-02-07T22:17:47.897Z,26.80
2019-02-07T22:22:55.155Z,25.43
2019-02-07T22:25:23.771Z,26.47
2019-02-07T22:27:52.716Z,23.00
2019-02-07T22:33:00.622Z,22.23
2019-02-07T22:35:29.263Z,25.27
2019-02-07T22:37:57.911Z,26.70
2019-02-07T22:40:26.876Z,26.07
2019-02-07T22:42:55.504Z,25.00
2019-02-07T22:48:02.706Z,27.77
2019-02-07T22:50:31.345Z,22.70
2019-02-07T22:52:59.996Z,36.13
2019-02-07T22:55:28.659Z,30.03
2019-02-07T22:57:57.295Z,24.73
2019-02-07T23:00:29.186Z,31.23
2019-02-07T23:02:58.146Z,26.77
2019-02-07T23:05:26.775Z,26.30
2019-02-07T23:07:55.444Z,25.33
2019-02-07T23:13:02.950Z,26.37
2019-02-07T23:15:31.530Z,23.67
2019-02-07T23:18:00.480Z,21.77
2019-02-07T23:20:29.461Z,24.70
2019-02-07T23:23:05.083Z,23.93
2019-02-07T23:25:26.747Z,24.63
2019-02-07T23:27:55.391Z,23.93
2019-02-07T23:30:24.027Z,22.40
2019-02-07T23:32:52.993Z,23.83
2019-02-07T23:35:21.628Z,29.27
2019-02-07T23:37:50.269Z,23.27
2019-02-07T23:40:18.909Z,20.37
2019-02-07T23:42:47.539Z,21.40
2019-02-07T23:45:16.177Z,19.70
2019-02-07T23:47:44.818Z,21.57
2019-02-07T23:50:13.464Z,21.87
2019-02-07T23:52:42.107Z,23.87
2019-02-07T23:55:10.771Z,26.60
2019-02-07T23:57:39.383Z,19.33
